createdAt,value
2023-05-15T00:00:54.717Z,98149.20
2023-05-15T00:03:52.367Z,98152.60
2023-05-15T00:06:50.189Z,98142.40
2023-05-15T00:09:47.723Z,98135.20
2023-05-15T00:12:45.332Z,98138.60
2023-05-15T00:15:42.790Z,98138.80
2023-05-15T00:18:41.178Z,98136.20
2023-05-15T00:21:38.791Z,98129.60
2023-05-15T00:24:36.537Z,98136.80
2023-05-15T00:27:34.142Z,98132.20
2023-05-15T00:30:31.601Z,98130.20
2023-05-15T00:33:29.126Z,98128.00
2023-05-15T00:36:26.615Z,98117.00
2023-05-15T00:39:24.361Z,98104.20
2023-05-15T00:42:21.820Z,98090.40
2023-05-15T00:45:19.592Z,98094.60
2023-05-15T00:48:17.202Z,98093.00
2023-05-15T00:51:14.633Z,98094.80
2023-05-15T00:54:12.375Z,98089.80
2023-05-15T00:57:09.766Z,98079.60
2023-05-15T01:00:10.877Z,98073.00
2023-05-15T01:03:08.414Z,98070.40
2023-05-15T01:06:06.157Z,98069.40
2023-05-15T01:09:04.590Z,98074.60
2023-05-15T01:12:02.143Z,98074.60
2023-05-15T01:15:00.543Z,98072.60
2023-05-15T01:17:58.026Z,98072.80
2023-05-15T01:20:55.850Z,98084.20
2023-05-15T01:23:53.494Z,98092.80
2023-05-15T01:26:51.116Z,98108.80
2023-05-15T01:29:48.743Z,98107.40
2023-05-15T01:32:46.206Z,98106.00
2023-05-15T01:35:44.063Z,98100.60
2023-05-15T01:38:41.519Z,98112.20
2023-05-15T01:41:39.151Z,98104.60
2023-05-15T01:44:36.606Z,98090.60
2023-05-15T01:47:34.288Z,98088.80
2023-05-15T01:50:31.990Z,98092.00
2023-05-15T01:53:29.432Z,98099.00
2023-05-15T01:56:27.181Z,98104.20
2023-05-15T01:59:24.630Z,98095.20
2023-05-15T02:02:22.356Z,98089.00
2023-05-15T02:05:19.769Z,98092.20
2023-05-15T02:08:17.570Z,98094.20
2023-05-15T02:11:15.311Z,98091.80
2023-05-15T02:14:12.719Z,98096.40
2023-05-15T02:17:10.461Z,98086.20
2023-05-15T02:20:08.629Z,98072.80
2023-05-15T02:23:06.326Z,98066.60
2023-05-15T02:26:04.613Z,98061.80
2023-05-15T02:29:02.290Z,98060.20
2023-05-15T02:31:59.731Z,98062.60
2023-05-15T02:34:57.585Z,98062.60
2023-05-15T02:37:54.987Z,98060.00
2023-05-15T02:40:52.701Z,98059.80
2023-05-15T02:43:50.338Z,98062.60
2023-05-15T02:46:47.739Z,98057.60
2023-05-15T02:49:45.354Z,98061.60
2023-05-15T02:52:42.812Z,98053.60
2023-05-15T02:55:40.608Z,98050.80
2023-05-15T02:58:38.054Z,98048.20
2023-05-15T03:01:35.874Z,98049.80
2023-05-15T03:04:33.326Z,98048.00
2023-05-15T03:07:30.978Z,98045.20
2023-05-15T03:10:28.720Z,98037.80
2023-05-15T03:13:26.187Z,98037.20
2023-05-15T03:16:23.967Z,98035.40
2023-05-15T03:19:21.413Z,98036.40
2023-05-15T03:22:19.014Z,98040.60
2023-05-15T03:25:16.482Z,98040.40
2023-05-15T03:28:14.127Z,98031.20
2023-05-15T03:31:11.640Z,98039.20
2023-05-15T03:34:09.396Z,98039.20
2023-05-15T03:37:07.214Z,98042.40
2023-05-15T03:40:04.884Z,98045.60
2023-05-15T03:43:02.635Z,98049.20
2023-05-15T03:46:00.075Z,98054.40
2023-05-15T03:48:57.744Z,98050.40
2023-05-15T03:51:55.218Z,98054.60
2023-05-15T03:54:52.982Z,98051.60
2023-05-15T03:57:50.553Z,98047.80
2023-05-15T04:00:48.003Z,98048.60
2023-05-15T04:03:45.664Z,98050.80
2023-05-15T04:06:43.067Z,98052.80
2023-05-15T04:09:40.794Z,98055.00
2023-05-15T04:12:38.233Z,98049.80
2023-05-15T04:15:36.023Z,98053.00
2023-05-15T04:18:33.495Z,98053.20
2023-05-15T04:21:33.321Z,98046.00
2023-05-15T04:24:30.895Z,98047.20
2023-05-15T04:27:28.654Z,98044.00
2023-05-15T04:30:26.290Z,98040.80
2023-05-15T04:33:23.788Z,98045.60
2023-05-15T04:36:22.040Z,98039.60
2023-05-15T04:39:19.443Z,98033.80
2023-05-15T04:42:17.037Z,98038.60
2023-05-15T04:45:14.863Z,98031.80
2023-05-15T04:48:12.458Z,98030.80
2023-05-15T04:51:10.156Z,98031.00
2023-05-15T04:54:07.568Z,98029.60
2023-05-15T04:57:05.315Z,98029.80
2023-05-15T05:00:02.788Z,98030.00
2023-05-15T05:03:00.417Z,98026.20
2023-05-15T05:05:58.092Z,98028.00
2023-05-15T05:08:55.836Z,98031.00
2023-05-15T05:11:53.511Z,98031.00
2023-05-15T05:14:50.965Z,98030.80
2023-05-15T05:17:49.434Z,98034.00
2023-05-15T05:20:47.030Z,98031.00
2023-05-15T05:23:44.776Z,98038.40
2023-05-15T05:26:42.199Z,98035.60
2023-05-15T05:29:40.402Z,98042.80
2023-05-15T05:32:38.120Z,98036.80
2023-05-15T05:35:35.624Z,98034.60
2023-05-15T05:38:33.576Z,98042.00
2023-05-15T05:41:31.000Z,98045.40
2023-05-15T05:44:28.730Z,98045.20
2023-05-15T05:47:26.235Z,98041.40
2023-05-15T05:50:23.876Z,98048.80
2023-05-15T05:53:24.552Z,98047.40
2023-05-15T05:56:22.776Z,98052.40
2023-05-15T05:59:20.355Z,98052.00
2023-05-15T06:02:17.829Z,98048.00
2023-05-15T06:05:15.832Z,98052.20
2023-05-15T06:08:13.361Z,98052.20
2023-05-15T06:11:11.102Z,98047.80
2023-05-15T06:14:09.595Z,98048.60
2023-05-15T06:17:07.425Z,98050.00
2023-05-15T06:20:07.382Z,98054.80
2023-05-15T06:23:04.785Z,98050.80
2023-05-15T06:26:03.497Z,98051.80
2023-05-15T06:29:00.942Z,98057.40
2023-05-15T06:31:58.592Z,98047.40
2023-05-15T06:34:56.067Z,98051.40
2023-05-15T06:37:56.477Z,98052.80
2023-05-15T06:40:55.201Z,98045.40
2023-05-15T06:43:52.901Z,98053.40
2023-05-15T06:46:51.201Z,98057.60
2023-05-15T06:49:48.718Z,98060.40
2023-05-15T06:52:48.137Z,98060.40
2023-05-15T06:55:45.589Z,98065.20
2023-05-15T06:58:43.455Z,98067.60
2023-05-15T07:01:40.916Z,98070.20
2023-05-15T07:04:38.607Z,98073.60
2023-05-15T07:07:36.090Z,98075.80
2023-05-15T07:10:33.817Z,98081.40
2023-05-15T07:13:31.895Z,98083.40
2023-05-15T07:16:29.328Z,98091.20
2023-05-15T07:19:27.193Z,98096.60
2023-05-15T07:22:24.649Z,98097.60
2023-05-15T07:25:22.848Z,98101.20
2023-05-15T07:28:20.561Z,98105.00
2023-05-15T07:31:18.256Z,98116.00
2023-05-15T07:34:15.708Z,98118.80
2023-05-15T07:37:14.896Z,98127.40
2023-05-15T07:43:33.570Z,98124.80
2023-05-15T07:46:34.450Z,98132.40
2023-05-15T07:49:31.882Z,98128.00
2023-05-15T07:52:29.616Z,98130.00
2023-05-15T07:55:27.187Z,98138.40
2023-05-15T07:58:25.113Z,98134.80
2023-05-15T08:01:22.528Z,98145.40
2023-05-15T08:04:22.164Z,98142.60
2023-05-15T08:07:21.842Z,98152.40
2023-05-15T08:10:19.256Z,98153.20
2023-05-15T08:13:17.440Z,98159.40
2023-05-15T08:16:14.926Z,98155.40
2023-05-15T08:19:12.551Z,98145.80
2023-05-15T08:22:10.019Z,98152.20
2023-05-15T08:25:09.710Z,98152.60
2023-05-15T08:28:07.917Z,98157.20
2023-05-15T08:31:05.376Z,98158.80
2023-05-15T08:34:03.667Z,98157.40
2023-05-15T08:37:01.101Z,98164.40
2023-05-15T08:39:58.722Z,98164.80
2023-05-15T08:42:56.272Z,98172.00
2023-05-15T08:45:54.007Z,98177.40
2023-05-15T08:48:51.488Z,98179.80
2023-05-15T08:51:49.573Z,98183.20
2023-05-15T08:54:48.705Z,98187.60
2023-05-15T08:57:46.282Z,98178.00
2023-05-15T09:00:43.957Z,98174.40
2023-05-15T09:03:41.420Z,98179.60
2023-05-15T09:06:38.997Z,98182.40
2023-05-15T09:09:36.580Z,98194.00
2023-05-15T09:12:34.340Z,98190.40
2023-05-15T09:15:32.494Z,98192.80
2023-05-15T09:18:29.896Z,98201.00
2023-05-15T09:21:27.634Z,98202.00
2023-05-15T09:24:25.347Z,98209.60
2023-05-15T09:27:23.056Z,98211.60
2023-05-15T09:30:21.381Z,98221.00
2023-05-15T09:33:19.123Z,98218.40
2023-05-15T09:36:16.793Z,98218.20
2023-05-15T09:39:14.260Z,98215.60
2023-05-15T09:42:11.932Z,98214.20
2023-05-15T09:45:09.406Z,98213.80
2023-05-15T09:48:07.323Z,98214.80
2023-05-15T09:51:07.833Z,98209.40
2023-05-15T09:54:05.534Z,98206.40
2023-05-15T09:57:03.283Z,98200.40
2023-05-15T10:00:00.714Z,98198.60
2023-05-15T10:02:58.321Z,98198.40
2023-05-15T10:05:55.865Z,98213.20
2023-05-15T10:08:53.872Z,98217.20
2023-05-15T10:11:51.655Z,98218.60
2023-05-15T10:14:49.154Z,98219.20
2023-05-15T10:17:46.909Z,98213.80
2023-05-15T10:20:44.427Z,98207.80
2023-05-15T10:23:42.178Z,98214.20
2023-05-15T10:26:39.626Z,98209.80
2023-05-15T10:29:37.252Z,98212.00
2023-05-15T10:32:35.023Z,98217.60
2023-05-15T10:35:32.625Z,98218.60
2023-05-15T10:38:31.958Z,98219.60
2023-05-15T10:41:29.414Z,98203.40
2023-05-15T10:44:27.152Z,98196.20
2023-05-15T10:47:24.985Z,98199.40
2023-05-15T10:50:22.466Z,98194.40
2023-05-15T10:53:20.245Z,98202.80
2023-05-15T10:56:17.737Z,98204.60
2023-05-15T10:59:15.455Z,98196.40
2023-05-15T11:02:12.896Z,98193.60
2023-05-15T11:05:13.363Z,98198.40
2023-05-15T11:08:10.812Z,98189.80
2023-05-15T11:11:08.592Z,98195.80
2023-05-15T11:14:06.044Z,98182.20
2023-05-15T11:17:05.091Z,98193.60
2023-05-15T11:20:03.836Z,98183.60
2023-05-15T11:23:01.279Z,98175.20
2023-05-15T11:25:59.007Z,98172.60
2023-05-15T11:28:56.419Z,98173.60
2023-05-15T11:31:54.480Z,98164.20
2023-05-15T11:34:51.857Z,98170.20
2023-05-15T11:37:49.933Z,98169.80
2023-05-15T11:40:47.722Z,98175.20
2023-05-15T11:43:45.124Z,98178.60
2023-05-15T11:46:43.859Z,98182.60
2023-05-15T11:49:41.266Z,98175.60
2023-05-15T11:52:38.899Z,98176.80
2023-05-15T11:55:38.070Z,98191.20
2023-05-15T11:58:35.488Z,98197.20
2023-05-15T12:01:33.028Z,98202.80
2023-05-15T12:04:31.980Z,98205.60
2023-05-15T12:07:29.749Z,98207.60
2023-05-15T12:10:27.310Z,98199.60
2023-05-15T12:13:25.141Z,98208.40
2023-05-15T12:16:22.972Z,98212.40
2023-05-15T12:19:20.451Z,98205.80
2023-05-15T12:22:19.331Z,98197.60
2023-05-15T12:25:17.723Z,98192.60
2023-05-15T12:28:17.448Z,98192.20
2023-05-15T12:31:14.900Z,98187.00
2023-05-15T12:34:12.742Z,98195.00
2023-05-15T12:37:10.321Z,98206.60
2023-05-15T12:40:10.388Z,98199.20
2023-05-15T12:43:10.996Z,98212.00
2023-05-15T12:46:08.502Z,98209.80
2023-05-15T12:49:06.172Z,98205.40
2023-05-15T12:52:03.560Z,98197.40
2023-05-15T12:55:01.279Z,98199.40
2023-05-15T12:57:59.069Z,98205.60
2023-05-15T13:00:57.104Z,98200.40
2023-05-15T13:03:55.007Z,98190.00
2023-05-15T13:06:52.776Z,98201.00
2023-05-15T13:09:52.764Z,98208.80
2023-05-15T13:12:50.176Z,98200.20
2023-05-15T13:15:47.805Z,98204.60
2023-05-15T13:18:45.513Z,98190.20
2023-05-15T13:21:44.006Z,98193.40
2023-05-15T13:24:42.273Z,98209.20
2023-05-15T13:27:39.782Z,98209.40
2023-05-15T13:30:39.299Z,98219.00
2023-05-15T13:33:37.614Z,98230.80
2023-05-15T13:36:35.226Z,98212.20
2023-05-15T13:39:32.919Z,98211.40
2023-05-15T13:42:30.349Z,98215.00
2023-05-15T13:45:28.046Z,98227.80
2023-05-15T13:48:25.850Z,98233.20
2023-05-15T13:51:23.572Z,98248.40
2023-05-15T13:54:20.962Z,98252.00
2023-05-15T13:57:18.701Z,98253.40
2023-05-15T14:00:16.675Z,98227.80
2023-05-15T14:03:15.252Z,98231.60
2023-05-15T14:06:13.626Z,98228.00
2023-05-15T14:09:11.169Z,98233.40
2023-05-15T14:12:10.098Z,98238.80
2023-05-15T14:15:07.551Z,98228.60
2023-05-15T14:18:05.283Z,98226.20
2023-05-15T14:21:02.749Z,98245.40
2023-05-15T14:24:00.663Z,98238.60
2023-05-15T14:26:58.138Z,98246.60
2023-05-15T14:29:57.119Z,98251.80
2023-05-15T14:32:55.038Z,98248.20
2023-05-15T14:35:52.532Z,98236.00
2023-05-15T14:38:50.217Z,98238.40
2023-05-15T14:41:47.814Z,98228.00
2023-05-15T14:44:45.404Z,98234.80
2023-05-15T14:47:43.176Z,98237.00
2023-05-15T14:50:40.973Z,98234.60
2023-05-15T14:53:38.673Z,98234.20
2023-05-15T14:56:36.400Z,98244.20
2023-05-15T14:59:34.071Z,98250.20
2023-05-15T15:02:31.586Z,98249.20
2023-05-15T15:05:29.440Z,98255.00
2023-05-15T15:08:26.895Z,98253.20
2023-05-15T15:11:24.532Z,98252.60
2023-05-15T15:14:21.946Z,98259.20
2023-05-15T15:17:19.657Z,98259.80
2023-05-15T15:20:17.105Z,98257.40
2023-05-15T15:23:16.503Z,98261.00
2023-05-15T15:26:13.901Z,98260.80
2023-05-15T15:29:11.832Z,98263.40
2023-05-15T15:32:09.602Z,98267.20
2023-05-15T15:35:07.277Z,98261.60
2023-05-15T15:38:07.515Z,98256.00
2023-05-15T15:41:05.694Z,98253.20
2023-05-15T15:44:03.444Z,98256.20
2023-05-15T15:47:01.520Z,98256.00
2023-05-15T15:49:58.919Z,98261.20
2023-05-15T15:52:56.669Z,98258.20
2023-05-15T15:55:54.337Z,98257.60
2023-05-15T15:58:52.068Z,98271.80
2023-05-15T16:01:49.609Z,98268.00
2023-05-15T16:04:47.409Z,98262.20
2023-05-15T16:07:44.954Z,98270.60
2023-05-15T16:10:42.549Z,98268.60
2023-05-15T16:13:41.161Z,98267.80
2023-05-15T16:16:38.918Z,98269.40
2023-05-15T16:19:36.592Z,98265.20
2023-05-15T16:22:34.031Z,98277.20
2023-05-15T16:25:31.838Z,98281.40
2023-05-15T16:28:29.294Z,98282.60
2023-05-15T16:31:27.519Z,98283.40
2023-05-15T16:34:25.482Z,98281.80
2023-05-15T16:37:23.143Z,98278.60
2023-05-15T16:40:21.017Z,98281.40
2023-05-15T16:43:18.422Z,98282.60
2023-05-15T16:46:16.599Z,98285.40
2023-05-15T16:49:14.090Z,98290.00
2023-05-15T16:52:12.041Z,98283.00
2023-05-15T16:55:09.600Z,98288.60
2023-05-15T16:58:07.320Z,98291.60
2023-05-15T17:01:06.519Z,98294.40
2023-05-15T17:04:04.101Z,98297.20
2023-05-15T17:07:02.203Z,98296.80
2023-05-15T17:09:59.693Z,98306.20
2023-05-15T17:12:57.890Z,98307.00
2023-05-15T17:15:55.377Z,98313.40
2023-05-15T17:18:53.562Z,98315.40
2023-05-15T17:21:51.012Z,98314.40
2023-05-15T17:24:50.685Z,98322.80
2023-05-15T17:27:49.598Z,98322.80
2023-05-15T17:30:47.015Z,98323.00
2023-05-15T17:33:45.675Z,98328.40
2023-05-15T17:36:44.822Z,98334.00
2023-05-15T17:39:42.465Z,98339.80
2023-05-15T17:42:40.075Z,98336.00
2023-05-15T17:45:37.595Z,98339.00
2023-05-15T17:48:36.129Z,98342.20
2023-05-15T17:51:33.565Z,98351.60
2023-05-15T17:54:32.068Z,98352.60
2023-05-15T17:57:29.629Z,98350.60
2023-05-15T18:00:27.076Z,98349.60
2023-05-15T18:03:24.803Z,98361.20
2023-05-15T18:06:22.421Z,98359.40
2023-05-15T18:09:23.873Z,98354.60
2023-05-15T18:12:21.652Z,98359.40
2023-05-15T18:15:20.784Z,98362.60
2023-05-15T18:18:18.405Z,98357.00
2023-05-15T18:21:16.210Z,98362.40
2023-05-15T18:24:14.542Z,98368.60
2023-05-15T18:27:11.968Z,98366.00
2023-05-15T18:30:09.659Z,98363.00
2023-05-15T18:33:07.183Z,98369.60
2023-05-15T18:36:06.696Z,98372.40
2023-05-15T18:39:05.139Z,98376.60
2023-05-15T18:42:04.115Z,98379.00
2023-05-15T18:45:02.319Z,98383.20
2023-05-15T18:48:00.271Z,98385.00
2023-05-15T18:50:59.199Z,98384.00
2023-05-15T18:53:57.108Z,98380.00
2023-05-15T18:56:54.906Z,98379.60
2023-05-15T18:59:52.908Z,98380.00
2023-05-15T19:02:50.637Z,98378.60
2023-05-15T19:05:48.280Z,98377.80
2023-05-15T19:08:45.944Z,98381.80
2023-05-15T19:11:45.291Z,98380.00
2023-05-15T19:14:42.955Z,98381.00
2023-05-15T19:17:41.246Z,98380.20
2023-05-15T19:20:38.737Z,98384.00
2023-05-15T19:23:36.437Z,98381.20
2023-05-15T19:26:34.074Z,98383.60
2023-05-15T19:29:32.498Z,98380.40
2023-05-15T19:32:30.417Z,98385.60
2023-05-15T19:35:28.106Z,98389.60
2023-05-15T19:38:26.526Z,98392.40
2023-05-15T19:41:23.974Z,98392.60
2023-05-15T19:44:21.808Z,98396.00
2023-05-15T19:47:19.418Z,98392.80
2023-05-15T19:50:17.778Z,98397.40
2023-05-15T19:53:15.196Z,98396.20
2023-05-15T19:56:14.021Z,98385.80
2023-05-15T19:59:11.760Z,98396.20
2023-05-15T20:02:11.187Z,98397.20
2023-05-15T20:05:09.525Z,98396.00
2023-05-15T20:08:07.032Z,98391.20
2023-05-15T20:11:04.809Z,98395.80
2023-05-15T20:14:02.282Z,98402.20
2023-05-15T20:17:00.087Z,98404.40
2023-05-15T20:19:59.159Z,98402.20
2023-05-15T20:22:56.912Z,98401.40
2023-05-15T20:25:54.539Z,98400.00
2023-05-15T20:28:52.260Z,98403.80
2023-05-15T20:31:51.819Z,98406.20
2023-05-15T20:34:49.349Z,98411.20
2023-05-15T20:37:47.267Z,98416.40
2023-05-15T20:40:44.680Z,98416.80
2023-05-15T20:43:42.510Z,98411.80
2023-05-15T20:46:40.169Z,98410.20
2023-05-15T20:49:37.585Z,98402.20
2023-05-15T20:52:35.292Z,98401.80
2023-05-15T20:55:32.686Z,98400.60
2023-05-15T20:58:30.419Z,98408.20
2023-05-15T21:01:27.920Z,98403.80
2023-05-15T21:04:25.940Z,98403.40
2023-05-15T21:07:23.304Z,98401.40
2023-05-15T21:10:21.105Z,98404.20
2023-05-15T21:13:18.501Z,98402.60
2023-05-15T21:16:16.145Z,98399.80
2023-05-15T21:19:14.201Z,98399.20
2023-05-15T21:22:11.605Z,98400.00
2023-05-15T21:25:09.309Z,98408.20
2023-05-15T21:28:07.702Z,98409.00
2023-05-15T21:31:06.081Z,98410.20
2023-05-15T21:34:03.572Z,98411.20
2023-05-15T21:37:01.157Z,98413.00
2023-05-15T21:39:58.856Z,98421.00
2023-05-15T21:42:56.255Z,98413.00
2023-05-15T21:45:53.963Z,98416.80
2023-05-15T21:48:51.361Z,98418.00
2023-05-15T21:51:49.065Z,98422.40
2023-05-15T21:54:46.496Z,98424.00
2023-05-15T21:57:44.272Z,98426.20
2023-05-15T22:00:41.964Z,98430.40
2023-05-15T22:03:39.541Z,98432.60
2023-05-15T22:06:37.430Z,98436.20
2023-05-15T22:09:35.056Z,98442.20
2023-05-15T22:12:33.590Z,98449.80
2023-05-15T22:15:31.054Z,98454.20
2023-05-15T22:18:29.158Z,98451.80
2023-05-15T22:21:27.062Z,98452.80
2023-05-15T22:24:24.465Z,98449.20
2023-05-15T22:27:22.198Z,98446.40
2023-05-15T22:30:19.632Z,98442.60
2023-05-15T22:33:17.312Z,98447.60
2023-05-15T22:36:14.692Z,98450.60
2023-05-15T22:39:12.569Z,98445.80
2023-05-15T22:42:12.669Z,98441.80
2023-05-15T22:45:10.335Z,98444.40
2023-05-15T22:48:08.035Z,98440.20
2023-05-15T22:51:06.909Z,98446.60
2023-05-15T22:54:06.678Z,98444.80
2023-05-15T22:57:04.072Z,98446.00
2023-05-15T23:00:02.023Z,98446.40
2023-05-15T23:02:59.854Z,98446.40
2023-05-15T23:05:57.329Z,98449.20
2023-05-15T23:08:55.146Z,98447.20
2023-05-15T23:11:52.759Z,98444.80
2023-05-15T23:14:50.350Z,98443.80
2023-05-15T23:17:47.856Z,98439.20
2023-05-15T23:20:46.214Z,98444.00
2023-05-15T23:23:44.809Z,98440.40
2023-05-15T23:26:42.422Z,98444.00
2023-05-15T23:29:40.119Z,98443.00
2023-05-15T23:32:37.591Z,98443.00
2023-05-15T23:35:35.299Z,98434.00
2023-05-15T23:38:32.690Z,98434.40
2023-05-15T23:41:30.495Z,98430.00
2023-05-15T23:44:27.961Z,98433.00
2023-05-15T23:47:25.568Z,98433.20
2023-05-15T23:50:23.339Z,98433.60
2023-05-15T23:53:23.556Z,98433.40
2023-05-15T23:56:21.259Z,98430.60
2023-05-15T23:59:18.655Z,98429.80
